Time;durP1;ratioP1;P1;durP2;ratioP2;P2;SDS_P1;SDS_P2;PMS_P1;PMS_P2;Temp;Humidity;BMP_temperature;BMP_pressure;BME280_temperature;BME280_humidity;BME280_pressure;Samples;Min_cycle;Max_cycle;Signal;HPM_P1;HPM_P2
2021/05/27 00:02:26;;;;;;;12.17;7.40;;;;;;;16.80;83.70;100761.48;1741216;80;21220;-66
2021/05/27 00:04:53;;;;;;;10.53;8.30;;;;;;;16.78;83.77;100755.59;1747550;80;22260;-70
2021/05/27 00:07:20;;;;;;;9.90;7.47;;;;;;;16.76;84.00;100754.28;1740639;80;21125;-68
2021/05/27 00:09:47;;;;;;;8.93;7.53;;;;;;;16.75;84.23;100756.17;1733619;80;21144;-68
2021/05/27 00:12:14;;;;;;;11.77;8.03;;;;;;;16.74;84.25;100753.72;1740013;80;21715;-67
2021/05/27 00:14:41;;;;;;;10.23;8.03;;;;;;;16.72;84.26;100750.54;1737203;80;21105;-68
2021/05/27 00:17:08;;;;;;;10.63;7.90;;;;;;;16.71;84.42;100747.56;1737706;80;21215;-67
2021/05/27 00:19:37;;;;;;;9.20;8.13;;;;;;;16.73;84.58;100747.53;1735728;79;21181;-68
2021/05/27 00:22:05;;;;;;;10.93;9.40;;;;;;;16.76;84.71;100751.03;1734465;80;21080;-66
2021/05/27 00:24:32;;;;;;;11.30;8.20;;;;;;;16.75;84.68;100743.21;1739683;80;21124;-67
2021/05/27 00:26:58;;;;;;;9.63;8.60;;;;;;;16.72;84.68;100747.29;1738391;80;21150;-67
2021/05/27 00:29:25;;;;;;;11.10;8.90;;;;;;;16.71;84.68;100738.13;1739013;80;21479;-68
2021/05/27 00:31:52;;;;;;;12.30;9.37;;;;;;;16.69;84.75;100745.17;1727466;80;21101;-68
2021/05/27 00:34:19;;;;;;;9.57;8.57;;;;;;;16.69;84.82;100743.03;1704634;82;21138;-67
2021/05/27 00:36:46;;;;;;;11.93;9.23;;;;;;;16.72;84.83;100739.75;1735259;81;21104;-68
2021/05/27 00:39:14;;;;;;;10.70;8.23;;;;;;;16.75;84.83;100744.56;1731553;80;21112;-69
2021/05/27 00:41:41;;;;;;;12.33;9.23;;;;;;;16.77;84.81;100738.34;1739657;80;21137;-68
2021/05/27 00:44:27;;;;;;;12.20;8.80;;;;;;;16.80;84.72;100742.59;1737019;81;21113;-67
2021/05/27 00:46:57;;;;;;;10.80;8.60;;;;;;;16.83;84.68;100735.27;1739261;80;21193;-67
2021/05/27 00:49:26;;;;;;;10.77;8.47;;;;;;;16.91;84.55;100734.33;1699887;82;21095;-67
2021/05/27 00:51:52;;;;;;;12.87;9.83;;;;;;;16.95;84.44;100729.42;1703315;83;21093;-69
2021/05/27 00:54:20;;;;;;;12.57;9.97;;;;;;;17.00;84.38;100736.06;1735162;80;21685;-68
2021/05/27 00:56:49;;;;;;;13.07;9.30;;;;;;;17.04;84.25;100734.92;1731080;80;21129;-67
2021/05/27 00:59:15;;;;;;;10.80;9.30;;;;;;;17.03;84.05;100734.68;1742270;80;21141;-68
2021/05/27 01:01:42;;;;;;;11.33;9.03;;;;;;;16.99;83.86;100736.38;1740007;80;21080;-68
2021/05/27 01:04:09;;;;;;;10.97;8.80;;;;;;;16.95;83.76;100743.47;1736301;82;21734;-68
2021/05/27 01:06:36;;;;;;;11.90;9.87;;;;;;;16.88;83.65;100740.59;1693811;82;21123;-68
2021/05/27 01:09:03;;;;;;;11.40;9.60;;;;;;;16.79;83.50;100741.55;1739915;80;21101;-68
2021/05/27 01:11:30;;;;;;;14.13;10.37;;;;;;;16.73;83.54;100741.34;1737564;80;21092;-69
2021/05/27 01:14:12;;;;;;;11.30;9.70;;;;;;;16.64;83.50;100736.59;1715742;81;21148;-68
2021/05/27 01:16:39;;;;;;;11.10;9.63;;;;;;;16.50;83.63;100741.13;1737926;80;21097;-68
2021/05/27 01:19:07;;;;;;;10.20;8.77;;;;;;;16.39;83.92;100739.14;1742634;80;21290;-68
2021/05/27 01:21:34;;;;;;;12.37;9.17;;;;;;;16.36;84.16;100741.06;1738190;80;21121;-68
2021/05/27 01:24:02;;;;;;;12.83;9.40;;;;;;;16.33;84.34;100738.95;1713188;82;21126;-68
2021/05/27 01:26:30;;;;;;;11.90;9.73;;;;;;;16.33;84.47;100742.20;1678411;82;21138;-68
2021/05/27 01:28:58;;;;;;;12.87;9.53;;;;;;;16.29;84.48;100743.33;1734464;80;21102;-67
2021/05/27 01:31:25;;;;;;;12.33;9.47;;;;;;;16.27;84.59;100737.96;1737959;80;21156;-67
2021/05/27 01:33:51;;;;;;;10.87;9.40;;;;;;;16.22;84.60;100738.81;1736495;80;21080;-67
2021/05/27 01:36:20;;;;;;;13.37;9.47;;;;;;;16.20;84.69;100738.87;1737356;81;21078;-68
2021/05/27 01:38:47;;;;;;;10.63;9.30;;;;;;;16.18;84.73;100733.20;1741760;80;21095;-67
2021/05/27 01:41:13;;;;;;;11.37;8.93;;;;;;;16.15;84.83;100735.13;1731629;80;21099;-67
2021/05/27 01:43:41;;;;;;;11.27;9.43;;;;;;;16.14;85.05;100736.23;1731696;80;21124;-67
2021/05/27 01:46:07;;;;;;;10.27;9.27;;;;;;;16.16;85.14;100739.45;1727725;80;21085;-67
2021/05/27 01:48:34;;;;;;;10.57;9.37;;;;;;;16.18;85.17;100737.25;1708625;80;21109;-67
2021/05/27 01:51:01;;;;;;;11.80;8.90;;;;;;;16.18;85.17;100731.06;1737162;80;21116;-67
2021/05/27 01:53:29;;;;;;;11.20;9.43;;;;;;;16.17;85.26;100738.34;1739659;80;21643;-67
2021/05/27 01:55:58;;;;;;;10.23;8.70;;;;;;;16.17;85.28;100737.00;1727100;81;21731;-67
2021/05/27 01:58:25;;;;;;;10.37;8.90;;;;;;;16.16;85.29;100732.71;1738284;80;21097;-67
2021/05/27 02:00:53;;;;;;;11.33;9.73;;;;;;;16.17;85.29;100735.66;1738507;80;21139;-68
2021/05/27 02:03:22;;;;;;;10.47;9.37;;;;;;;16.17;85.22;100735.66;1739387;80;21076;-67
2021/05/27 02:05:51;;;;;;;10.77;9.73;;;;;;;16.17;84.98;100739.70;1738336;80;21092;-67
2021/05/27 02:08:21;;;;;;;11.97;9.30;;;;;;;16.14;85.16;100733.53;1737051;80;21077;-68
2021/05/27 02:10:49;;;;;;;;;;;;;;;16.15;85.19;100731.09;1746988;80;21105;-67
2021/05/27 02:13:17;;;;;;;13.73;10.27;;;;;;;16.11;85.13;100726.03;1740414;82;20748;-67
2021/05/27 02:15:44;;;;;;;12.83;9.37;;;;;;;16.03;85.00;100725.34;1737383;80;21062;-67
2021/05/27 02:18:12;;;;;;;13.37;9.77;;;;;;;16.03;85.00;100725.34;1740411;81;21070;-67
2021/05/27 02:20:39;;;;;;;12.73;10.23;;;;;;;16.07;85.16;100729.05;1739962;80;21756;-68
2021/05/27 02:23:06;;;;;;;11.83;10.00;;;;;;;16.05;85.05;100729.88;1740526;80;21082;-68
2021/05/27 02:25:38;;;;;;;16.73;10.90;;;;;;;16.04;85.06;100730.97;1737246;80;21120;-70
2021/05/27 02:28:08;;;;;;;11.87;10.57;;;;;;;16.08;84.90;100736.59;1726043;80;21105;-69
2021/05/27 02:30:36;;;;;;;11.70;10.00;;;;;;;16.09;84.93;100730.92;1730642;80;21396;-68
2021/05/27 02:33:05;;;;;;;11.00;9.90;;;;;;;16.05;84.92;100728.53;1743033;80;21520;-68
2021/05/27 02:35:35;;;;;;;10.97;9.77;;;;;;;16.05;84.92;100728.53;1739214;80;21093;-69
2021/05/27 02:38:04;;;;;;;12.60;9.97;;;;;;;16.06;84.72;100725.31;1739619;80;21042;-67
2021/05/27 02:40:32;;;;;;;11.23;10.00;;;;;;;16.08;84.77;100726.61;1732410;80;21065;-68
2021/05/27 02:43:01;;;;;;;16.07;10.87;;;;;;;16.11;84.84;100718.50;1721317;80;21112;-68
2021/05/27 02:45:30;;;;;;;11.17;9.97;;;;;;;16.14;84.96;100724.11;1741160;80;21148;-68
2021/05/27 02:47:58;;;;;;;11.23;10.03;;;;;;;16.16;84.85;100728.67;1736304;81;21702;-68
2021/05/27 02:50:27;;;;;;;11.87;10.67;;;;;;;16.15;84.88;100721.66;1739425;80;21085;-68
2021/05/27 02:52:56;;;;;;;13.20;11.77;;;;;;;16.12;84.98;100718.74;1740809;80;21148;-69
2021/05/27 02:55:23;;;;;;;13.20;11.40;;;;;;;16.09;85.16;100717.45;1739408;80;21045;-67
2021/05/27 02:57:52;;;;;;;13.30;10.90;;;;;;;16.10;85.30;100716.35;1736550;80;21651;-68
2021/05/27 03:00:21;;;;;;;15.87;11.83;;;;;;;16.11;85.51;100721.19;1744316;80;21214;-66
2021/05/27 03:02:56;;;;;;;13.17;11.77;;;;;;;16.17;85.80;100720.83;1723832;80;21124;-66
2021/05/27 03:05:23;;;;;;;15.70;12.40;;;;;;;16.24;85.73;100716.43;1733438;82;21718;-66
2021/05/27 03:07:49;;;;;;;13.70;11.70;;;;;;;16.22;85.78;100712.41;1740741;80;21045;-67
2021/05/27 03:10:19;;;;;;;13.70;12.30;;;;;;;16.16;85.88;100715.20;1744011;80;21173;-67
2021/05/27 03:12:48;;;;;;;13.40;11.40;;;;;;;16.13;86.09;100717.12;1738846;81;21034;-67
2021/05/27 03:15:16;;;;;;;13.10;11.80;;;;;;;16.12;86.22;100716.05;1738125;80;21552;-68
2021/05/27 03:17:44;;;;;;;14.73;13.00;;;;;;;16.20;86.40;100710.58;1735401;80;22438;-67
2021/05/27 03:20:13;;;;;;;14.23;12.73;;;;;;;16.31;86.42;100708.78;1737300;80;21069;-68
2021/05/27 03:22:40;;;;;;;13.67;12.23;;;;;;;16.41;86.37;100709.17;1726033;82;21498;-67
2021/05/27 03:25:10;;;;;;;13.20;11.80;;;;;;;16.48;86.27;100710.95;1733476;81;21093;-67
2021/05/27 03:27:36;;;;;;;13.53;11.60;;;;;;;16.59;86.13;100708.37;1739148;80;21135;-67
2021/05/27 03:30:07;;;;;;;13.27;11.97;;;;;;;16.65;85.61;100713.95;1743023;80;21615;-67
2021/05/27 03:32:34;;;;;;;14.57;12.30;;;;;;;16.67;85.29;100706.10;1737897;80;21683;-67
2021/05/27 03:35:02;;;;;;;13.53;12.13;;;;;;;16.71;85.09;100700.37;1725313;82;21445;-68
2021/05/27 03:37:30;;;;;;;15.07;12.93;;;;;;;16.74;84.67;100701.13;1740810;80;21615;-68
2021/05/27 03:40:13;;;;;;;13.73;11.97;;;;;;;16.73;84.47;100699.53;1736448;80;21101;-68
2021/05/27 03:42:49;;;;;;;15.77;11.70;;;;;;;16.76;84.37;100698.98;1740646;80;21607;-68
2021/05/27 03:45:27;;;;;;;14.00;12.50;;;;;;;16.83;84.29;100703.44;1735386;82;21524;-68
2021/05/27 03:47:58;;;;;;;15.67;11.80;;;;;;;16.90;84.12;100705.20;1739553;80;21743;-67
2021/05/27 03:50:27;;;;;;;13.87;11.67;;;;;;;16.99;83.89;100702.09;1739218;80;21088;-67
2021/05/27 03:52:54;;;;;;;14.73;11.60;;;;;;;17.09;83.66;100696.52;1738667;80;21041;-67
2021/05/27 03:55:23;;;;;;;14.13;11.97;;;;;;;17.20;83.27;100698.48;1733597;80;21583;-68
2021/05/27 03:57:54;;;;;;;15.80;12.23;;;;;;;17.32;82.91;100700.70;1732477;80;21046;-68
2021/05/27 04:03:10;;;;;;;13.77;11.93;;;;;;;17.55;81.93;100701.62;1736334;82;21639;-68
2021/05/27 04:08:25;;;;;;;14.50;12.63;;;;;;;17.85;80.91;100697.53;1736636;80;21310;-68
2021/05/27 04:10:52;;;;;;;13.13;11.73;;;;;;;17.97;80.32;100694.32;1736167;80;21219;-67
2021/05/27 04:13:19;;;;;;;14.57;12.17;;;;;;;18.01;79.95;100689.34;1739159;81;21116;-68
2021/05/27 04:15:47;;;;;;;16.00;13.03;;;;;;;18.09;79.69;100691.88;1740053;81;21639;-67
2021/05/27 04:18:17;;;;;;;14.63;13.13;;;;;;;18.14;79.32;100691.78;1740344;80;21631;-67
2021/05/27 04:20:51;;;;;;;14.90;13.27;;;;;;;18.17;78.97;100693.08;1735217;80;21165;-67
2021/05/27 04:23:40;;;;;;;13.50;12.10;;;;;;;18.19;78.61;100693.55;1714838;80;21052;-67
2021/05/27 04:26:06;;;;;;;14.00;12.50;;;;;;;18.25;78.36;100699.09;1740464;80;22064;-68
2021/05/27 04:28:33;;;;;;;14.73;12.63;;;;;;;18.34;78.23;100694.57;1739176;80;21152;-69
2021/05/27 04:31:11;;;;;;;13.40;11.77;;;;;;;18.45;77.87;100689.16;1725713;80;21543;-67
2021/05/27 04:33:47;;;;;;;13.37;12.07;;;;;;;18.49;77.63;100687.47;1738658;80;21045;-67
2021/05/27 04:36:15;;;;;;;13.57;12.17;;;;;;;18.59;77.29;100686.95;1730229;80;21113;-68
2021/05/27 04:38:43;;;;;;;14.73;12.43;;;;;;;18.67;76.90;100680.27;1724300;81;21635;-68
2021/05/27 04:41:10;;;;;;;12.77;11.33;;;;;;;18.77;76.60;100691.42;1744923;80;21252;-68
2021/05/27 04:43:41;;;;;;;12.63;11.33;;;;;;;18.81;76.08;100689.69;1737266;79;21559;-68
2021/05/27 04:46:09;;;;;;;13.13;11.73;;;;;;;18.75;75.88;100690.92;1729128;80;21109;-68
2021/05/27 04:48:37;;;;;;;13.77;11.70;;;;;;;18.71;75.78;100692.61;1739691;80;21067;-69
2021/05/27 04:51:04;;;;;;;12.27;10.93;;;;;;;18.64;75.77;100693.61;1740225;80;21771;-68
2021/05/27 04:53:32;;;;;;;11.43;10.23;;;;;;;18.66;75.92;100688.70;1742871;80;21102;-68
2021/05/27 04:55:59;;;;;;;12.83;11.37;;;;;;;18.75;75.97;100688.20;1736330;80;21058;-68
2021/05/27 04:58:29;;;;;;;12.00;10.70;;;;;;;18.84;75.84;100689.62;1735643;80;21236;-68
2021/05/27 05:01:00;;;;;;;14.40;11.03;;;;;;;18.92;75.67;100696.46;1742211;80;21025;-67
2021/05/27 05:03:27;;;;;;;13.43;11.33;;;;;;;19.02;75.48;100690.52;1740609;80;21215;-67
2021/05/27 05:05:55;;;;;;;13.00;11.70;;;;;;;19.10;75.18;100689.22;1739071;80;21030;-68
2021/05/27 05:08:22;;;;;;;14.00;11.37;;;;;;;19.18;74.98;100680.36;1737353;80;21024;-68
2021/05/27 05:10:49;;;;;;;13.60;9.90;;;;;;;19.28;74.66;100678.46;1739317;80;21041;-68
2021/05/27 05:13:16;;;;;;;12.40;11.10;;;;;;;19.34;74.22;100673.95;1755539;80;20981;-67
2021/05/27 05:15:45;;;;;;;12.57;10.87;;;;;;;19.41;74.07;100686.51;1746195;80;21089;-68
2021/05/27 05:18:15;;;;;;;12.27;11.07;;;;;;;19.51;73.73;100685.40;1737754;80;20989;-67
2021/05/27 05:20:45;;;;;;;12.37;10.10;;;;;;;19.60;73.42;100686.23;1738177;80;21643;-68
2021/05/27 05:23:13;;;;;;;13.95;11.35;;;;;;;19.69;73.11;100683.59;1734302;80;21938;-68
2021/05/27 05:25:41;;;;;;;10.83;9.73;;;;;;;19.79;72.72;100679.22;1741298;80;21065;-68
2021/05/27 05:28:09;;;;;;;13.17;10.33;;;;;;;19.83;72.08;100677.47;1741240;80;21771;-67
2021/05/27 05:30:36;;;;;;;11.23;9.80;;;;;;;19.86;71.69;100674.13;1739957;80;21104;-68
2021/05/27 05:33:05;;;;;;;10.60;8.93;;;;;;;19.94;71.07;100677.16;1705518;82;21802;-68
2021/05/27 05:35:32;;;;;;;14.90;10.87;;;;;;;19.99;70.73;100676.47;1743253;80;21156;-68
2021/05/27 05:37:59;;;;;;;12.60;9.53;;;;;;;20.05;70.29;100684.69;1733058;80;21139;-68
2021/05/27 05:40:28;;;;;;;12.80;9.87;;;;;;;20.08;69.78;100680.55;1738057;80;21743;-68
2021/05/27 05:42:56;;;;;;;9.43;7.90;;;;;;;20.05;69.64;100668.98;1740826;80;21149;-68
2021/05/27 05:45:23;;;;;;;8.13;7.23;;;;;;;20.10;69.41;100668.81;1736007;80;21528;-69
2021/05/27 05:47:52;;;;;;;9.00;6.73;;;;;;;20.23;69.03;100667.06;1745668;80;21081;-68
2021/05/27 05:53:08;;;;;;;10.47;7.30;;;;;;;20.39;68.18;100667.61;1742318;80;21118;-69
2021/05/27 05:55:35;;;;;;;7.67;6.20;;;;;;;20.48;67.83;100668.19;1737221;80;21104;-69
2021/05/27 05:58:03;;;;;;;6.30;5.37;;;;;;;20.57;66.93;100664.94;1740072;80;21101;-69
2021/05/27 06:00:32;;;;;;;7.10;5.53;;;;;;;20.68;66.39;100666.75;1740080;80;21172;-69
2021/05/27 06:02:59;;;;;;;6.37;4.87;;;;;;;20.78;64.85;100664.48;1742934;79;21109;-68
2021/05/27 06:05:44;;;;;;;4.63;3.63;;;;;;;20.80;64.15;100666.89;1753558;80;21165;-68
2021/05/27 06:08:18;;;;;;;4.90;3.87;;;;;;;20.91;63.69;100664.63;1726926;80;21000;-70
2021/05/27 06:10:45;;;;;;;5.07;3.83;;;;;;;21.02;62.32;100661.78;1738376;80;21077;-70
2021/05/27 06:13:12;;;;;;;4.87;3.87;;;;;;;21.07;60.66;100667.84;1741409;80;21585;-70
2021/05/27 06:15:40;;;;;;;5.10;3.47;;;;;;;21.12;60.39;100671.49;1747308;80;21042;-70
2021/05/27 06:18:08;;;;;;;6.40;4.07;;;;;;;21.24;60.43;100663.47;1716345;80;21692;-70
2021/05/27 06:20:38;;;;;;;5.33;4.27;;;;;;;21.38;60.14;100663.27;1722928;80;21164;-70
2021/05/27 06:23:07;;;;;;;5.17;4.03;;;;;;;21.51;59.79;100665.75;1736905;80;21087;-70
2021/05/27 06:25:33;;;;;;;5.40;4.07;;;;;;;21.67;59.50;100666.56;1734057;80;21096;-69
2021/05/27 06:28:01;;;;;;;6.53;4.87;;;;;;;21.82;59.20;100665.20;1730076;80;21081;-71
2021/05/27 06:30:29;;;;;;;7.07;4.90;;;;;;;21.91;58.96;100660.48;1752990;80;21113;-70
2021/05/27 06:32:58;;;;;;;5.90;4.40;;;;;;;21.94;59.19;100664.69;1733136;80;21090;-71
2021/05/27 06:35:25;;;;;;;6.10;4.50;;;;;;;21.99;59.06;100667.23;1738524;80;21141;-70
2021/05/27 06:37:51;;;;;;;4.80;3.73;;;;;;;22.05;58.75;100665.69;1732572;80;21038;-71
2021/05/27 06:40:24;;;;;;;5.70;4.20;;;;;;;22.10;58.37;100664.11;1739594;80;21069;-70
2021/05/27 06:42:52;;;;;;;5.33;3.80;;;;;;;22.12;58.57;100668.09;1742879;80;21118;-71
2021/05/27 06:45:19;;;;;;;4.47;3.20;;;;;;;22.21;58.50;100668.04;1740435;80;21136;-72
2021/05/27 06:47:46;;;;;;;3.97;3.23;;;;;;;22.30;57.26;100673.42;1738225;80;20993;-71
2021/05/27 06:50:14;;;;;;;4.40;2.90;;;;;;;22.40;57.57;100668.92;1741954;80;21002;-72
2021/05/27 06:52:40;;;;;;;3.93;2.90;;;;;;;22.49;56.20;100680.53;1744259;80;21152;-72
2021/05/27 06:55:08;;;;;;;4.87;3.60;;;;;;;22.60;55.88;100678.19;1740925;80;21222;-74
2021/05/27 06:57:35;;;;;;;5.90;3.80;;;;;;;22.67;55.83;100675.17;1739457;80;20987;-73
2021/05/27 07:00:05;;;;;;;5.57;4.23;;;;;;;22.75;55.15;100669.97;1762982;80;21021;-73
2021/05/27 07:02:32;;;;;;;5.53;4.30;;;;;;;22.74;54.86;100676.52;1745447;80;21070;-71
2021/05/27 07:04:59;;;;;;;6.00;4.43;;;;;;;22.72;55.48;100672.79;1740764;81;21623;-68
2021/05/27 07:07:25;;;;;;;6.37;4.47;;;;;;;22.79;55.17;100666.80;1740060;80;21514;-68
2021/05/27 07:09:53;;;;;;;8.37;4.53;;;;;;;22.90;55.34;100661.13;1737976;80;21648;-69
2021/05/27 07:12:20;;;;;;;5.70;4.60;;;;;;;23.02;55.38;100660.41;1736563;80;21781;-69
2021/05/27 07:14:48;;;;;;;7.10;5.50;;;;;;;23.15;55.81;100656.55;1744615;80;21152;-68
2021/05/27 07:17:15;;;;;;;8.37;5.17;;;;;;;23.29;55.60;100656.22;1756122;80;21128;-69
2021/05/27 07:19:42;;;;;;;7.50;4.93;;;;;;;23.34;55.26;100650.56;1739351;80;21878;-68
2021/05/27 07:22:09;;;;;;;10.27;5.53;;;;;;;23.44;55.34;100655.55;1714393;80;21698;-68
2021/05/27 07:24:36;;;;;;;8.17;4.87;;;;;;;23.56;54.19;100651.46;1735919;80;21116;-68
2021/05/27 07:27:04;;;;;;;11.47;5.80;;;;;;;23.65;53.73;100652.11;1735810;80;21140;-68
2021/05/27 07:29:32;;;;;;;9.93;5.37;;;;;;;23.75;53.68;100648.72;1735945;80;21635;-70
2021/05/27 07:32:01;;;;;;;8.90;5.00;;;;;;;23.82;52.81;100646.20;1738412;80;21152;-68
2021/05/27 07:34:28;;;;;;;9.77;5.53;;;;;;;23.85;53.43;100645.52;1740718;80;21628;-70
2021/05/27 07:36:56;;;;;;;7.37;5.27;;;;;;;23.91;52.87;100648.23;1727821;80;21168;-68
2021/05/27 07:39:24;;;;;;;8.20;5.60;;;;;;;24.05;52.65;100639.12;1727296;80;21579;-69
2021/05/27 07:41:51;;;;;;;7.40;5.60;;;;;;;24.16;52.56;100638.05;1736563;80;21101;-68
2021/05/27 07:44:18;;;;;;;10.23;6.10;;;;;;;24.31;51.16;100637.29;1734066;80;21116;-67
2021/05/27 07:46:45;;;;;;;12.57;7.00;;;;;;;24.41;50.90;100633.30;1737540;80;21092;-69
2021/05/27 07:49:12;;;;;;;7.50;5.47;;;;;;;24.56;50.75;100636.64;1732897;80;21053;-69
2021/05/27 07:51:39;;;;;;;8.17;6.23;;;;;;;24.65;51.81;100632.39;1730304;80;21333;-67
2021/05/27 07:54:06;;;;;;;7.83;5.63;;;;;;;24.68;51.86;100632.24;1737038;80;22153;-68
2021/05/27 07:56:33;;;;;;;8.33;5.93;;;;;;;24.77;50.37;100631.52;1736219;80;21116;-69
2021/05/27 07:58:59;;;;;;;8.33;5.80;;;;;;;24.94;50.66;100630.37;1735987;79;21101;-69
2021/05/27 08:01:26;;;;;;;7.13;5.40;;;;;;;25.12;49.81;100624.02;1737052;80;21160;-68
2021/05/27 08:03:53;;;;;;;9.07;6.20;;;;;;;25.21;49.62;100622.70;1740054;79;21100;-69
2021/05/27 08:06:19;;;;;;;9.00;6.23;;;;;;;25.29;49.90;100622.28;1733250;80;21754;-68
2021/05/27 08:08:46;;;;;;;9.93;6.50;;;;;;;25.32;49.26;100624.30;1701426;82;21600;-68
2021/05/27 08:11:12;;;;;;;7.27;5.20;;;;;;;25.29;49.17;100620.91;1700275;82;21071;-69
2021/05/27 08:13:39;;;;;;;7.80;5.63;;;;;;;25.20;49.41;100621.67;1735640;80;21647;-68
2021/05/27 08:16:06;;;;;;;8.23;5.87;;;;;;;25.22;49.79;100627.58;1733011;80;21332;-69
2021/05/27 08:18:35;;;;;;;8.33;5.57;;;;;;;25.28;48.93;100620.70;1736205;80;21056;-69
2021/05/27 08:21:03;;;;;;;7.53;5.70;;;;;;;25.25;49.09;100625.51;1730890;80;21480;-69
2021/05/27 08:23:29;;;;;;;7.07;5.30;;;;;;;25.21;49.10;100621.33;1700879;82;21090;-67
2021/05/27 08:25:56;;;;;;;12.03;6.80;;;;;;;25.18;49.13;100621.25;1734846;80;21587;-67
2021/05/27 08:28:24;;;;;;;8.97;6.83;;;;;;;25.17;48.85;100616.91;1734536;80;21595;-69
2021/05/27 08:30:51;;;;;;;8.37;6.70;;;;;;;25.10;48.90;100615.34;1738309;82;21093;-69
2021/05/27 08:33:18;;;;;;;7.70;6.87;;;;;;;25.06;49.23;100615.84;1735034;80;21596;-68
2021/05/27 08:35:45;;;;;;;7.40;6.43;;;;;;;24.99;48.80;100609.05;1720294;81;21088;-68
2021/05/27 08:38:12;;;;;;;8.73;6.70;;;;;;;24.88;49.27;100611.31;1735068;80;21072;-68
2021/05/27 08:40:39;;;;;;;9.43;6.43;;;;;;;24.85;49.26;100612.02;1734648;81;21643;-68
2021/05/27 08:43:06;;;;;;;8.03;6.63;;;;;;;24.80;49.21;100610.33;1734294;80;21152;-68
2021/05/27 08:45:37;;;;;;;6.23;5.60;;;;;;;24.78;49.33;100616.16;1735017;80;21104;-69
2021/05/27 08:48:05;;;;;;;7.20;6.30;;;;;;;24.80;49.26;100611.69;1731391;80;21106;-68
2021/05/27 08:50:35;;;;;;;8.50;6.83;;;;;;;24.85;49.20;100611.44;1730034;80;21055;-67
2021/05/27 08:53:00;;;;;;;8.60;7.27;;;;;;;25.02;49.06;100613.02;1687341;84;21128;-68
2021/05/27 08:55:28;;;;;;;9.10;7.63;;;;;;;25.28;49.12;100614.45;1739020;80;21205;-68
2021/05/27 08:57:55;;;;;;;8.73;7.17;;;;;;;25.54;48.37;100608.40;1742229;80;21078;-70
2021/05/27 09:00:22;;;;;;;8.20;7.40;;;;;;;25.68;47.87;100613.59;1717548;82;21088;-69
2021/05/27 09:03:01;;;;;;;7.63;6.37;;;;;;;25.74;47.25;100613.53;1738114;81;21105;-69
2021/05/27 09:05:36;;;;;;;9.27;7.07;;;;;;;25.70;46.67;100619.51;1733108;80;21131;-70
2021/05/27 09:08:04;;;;;;;7.23;6.47;;;;;;;25.57;47.08;100618.05;1746441;80;21001;-68
2021/05/27 09:10:47;;;;;;;8.00;7.20;;;;;;;25.48;47.35;100616.87;1738803;80;21112;-68
2021/05/27 09:13:19;;;;;;;6.00;5.20;;;;;;;25.44;47.32;100619.31;1738151;81;21061;-68
2021/05/27 09:15:48;;;;;;;9.30;6.60;;;;;;;25.38;47.76;100614.69;1738567;80;21113;-68
2021/05/27 09:18:38;;;;;;;8.00;6.83;;;;;;;25.23;48.16;100617.65;1707637;82;21103;-68
2021/05/27 09:21:09;;;;;;;;;;;;;;;25.16;48.39;100616.70;1739654;80;21767;-69
2021/05/27 09:23:49;;;;;;;7.53;6.40;;;;;;;25.18;48.76;100616.56;1741355;80;21019;-68
2021/05/27 09:26:17;;;;;;;8.23;6.43;;;;;;;25.28;48.16;100606.25;1735597;80;21145;-69
2021/05/27 09:28:46;;;;;;;7.00;6.30;;;;;;;25.37;48.15;100607.64;1729010;80;21092;-67
2021/05/27 09:31:19;;;;;;;8.47;6.60;;;;;;;25.50;48.20;100609.66;1731593;80;21038;-69
2021/05/27 09:33:50;;;;;;;6.50;5.90;;;;;;;25.56;47.55;100613.70;1757884;80;21810;-69
2021/05/27 09:36:19;;;;;;;7.27;5.90;;;;;;;25.50;47.90;100606.92;1732757;80;21807;-69
2021/05/27 09:38:53;;;;;;;7.40;6.33;;;;;;;25.53;48.26;100602.11;1742101;80;21078;-69
2021/05/27 09:41:25;;;;;;;7.00;5.80;;;;;;;25.59;47.91;100604.00;1735852;80;21062;-67
2021/05/27 09:44:08;;;;;;;9.70;6.57;;;;;;;25.64;48.31;100601.00;1728814;80;21135;-68
2021/05/27 09:46:52;;;;;;;;;;;;;;;25.71;48.25;100592.94;1737888;80;21061;-69
2021/05/27 09:49:23;;;;;;;7.00;6.30;;;;;;;25.88;48.35;100591.75;1732167;82;21087;-69
2021/05/27 09:51:47;;;;;;;7.13;6.20;;;;;;;25.96;48.28;100587.44;1733287;80;21156;-69
2021/05/27 09:54:14;;;;;;;7.07;6.20;;;;;;;26.15;48.05;100592.67;1738602;81;21049;-67
2021/05/27 09:56:43;;;;;;;7.07;6.30;;;;;;;26.31;48.18;100586.53;1738248;80;21104;-68
2021/05/27 09:59:13;;;;;;;6.20;5.53;;;;;;;26.42;47.75;100589.45;1708798;82;21068;-69
2021/05/27 10:01:40;;;;;;;6.53;5.70;;;;;;;26.61;47.03;100584.55;1736737;80;21174;-69
2021/05/27 10:04:14;;;;;;;6.60;5.53;;;;;;;26.82;46.62;100585.50;1722246;80;21161;-68
2021/05/27 10:06:41;;;;;;;5.63;4.90;;;;;;;26.96;46.38;100589.05;1736802;80;21068;-69
2021/05/27 10:09:10;;;;;;;5.57;4.30;;;;;;;27.07;46.66;100592.73;1741140;81;21547;-68
2021/05/27 10:11:39;;;;;;;5.73;4.37;;;;;;;27.13;45.76;100594.04;1738581;80;21087;-68
2021/05/27 10:14:09;;;;;;;5.37;4.10;;;;;;;27.10;45.78;100596.90;1737241;80;21660;-69
2021/05/27 10:16:38;;;;;;;4.53;3.63;;;;;;;27.03;45.64;100591.31;1734917;80;21099;-68
2021/05/27 10:19:06;;;;;;;5.27;3.80;;;;;;;26.90;45.95;100586.60;1701823;82;21101;-68
2021/05/27 10:21:33;;;;;;;5.00;3.30;;;;;;;26.75;46.33;100594.39;1740372;80;21722;-69
2021/05/27 10:24:00;;;;;;;5.47;3.60;;;;;;;26.52;46.47;100586.73;1738808;81;21117;-70
2021/05/27 10:26:28;;;;;;;5.13;3.27;;;;;;;26.27;46.83;100586.26;1727681;80;21102;-69
2021/05/27 10:28:55;;;;;;;6.17;3.57;;;;;;;26.01;47.24;100586.92;1672802;84;21169;-67
2021/05/27 10:31:24;;;;;;;6.33;3.53;;;;;;;25.73;47.76;100588.70;1741542;80;21683;-68
2021/05/27 10:33:52;;;;;;;5.10;3.60;;;;;;;25.52;48.37;100587.44;1725328;80;21100;-69
2021/05/27 10:36:20;;;;;;;7.67;3.77;;;;;;;25.34;48.91;100581.01;1734971;80;21139;-68
2021/05/27 10:38:50;;;;;;;5.97;3.50;;;;;;;25.20;49.68;100589.66;1713507;81;21513;-68
2021/05/27 10:41:31;;;;;;;5.93;3.70;;;;;;;25.07;49.93;100585.98;1718245;80;21112;-68
2021/05/27 10:44:06;;;;;;;;;;;;;;;24.93;50.33;100583.71;1736637;81;21128;-69
2021/05/27 10:46:51;;;;;;;7.67;3.70;;;;;;;24.77;50.58;100585.08;1740964;80;20301;-68
2021/05/27 10:49:45;;;;;;;7.63;3.90;;;;;;;24.53;51.10;100579.20;1743410;80;21041;-68
2021/05/27 10:52:32;;;;;;;6.87;3.00;;;;;;;24.33;51.77;100584.52;1741040;80;21815;-68
2021/05/27 10:54:59;;;;;;;6.77;2.97;;;;;;;24.14;52.29;100584.38;1739156;80;21080;-68
2021/05/27 10:57:43;;;;;;;4.53;3.33;;;;;;;24.00;52.75;100576.59;1725830;80;21071;-67
2021/05/27 11:00:46;;;;;;;5.17;2.73;;;;;;;23.90;53.23;100583.91;1705383;84;21077;-68
2021/05/27 11:03:48;;;;;;;5.40;3.00;;;;;;;23.78;53.48;100578.48;1733085;80;21781;-69
2021/05/27 11:06:34;;;;;;;6.17;2.70;;;;;;;23.64;53.71;100576.91;1719658;80;21788;-68
2021/05/27 11:09:16;;;;;;;3.93;2.63;;;;;;;23.56;54.14;100579.75;1733874;80;21069;-68
2021/05/27 11:12:18;;;;;;;5.87;2.90;;;;;;;23.49;54.47;100579.55;1735858;80;21110;-68
2021/05/27 11:14:56;;;;;;;4.10;2.83;;;;;;;23.41;54.67;100575.81;1741357;80;21066;-67
2021/05/27 11:17:25;;;;;;;4.17;2.50;;;;;;;23.34;55.01;100572.30;1722956;80;21060;-68
2021/05/27 11:20:04;;;;;;;4.07;2.70;;;;;;;23.27;55.14;100566.64;1702174;82;21099;-69
2021/05/27 11:22:37;;;;;;;5.77;3.40;;;;;;;23.20;55.49;100573.24;1689961;82;21145;-69
2021/05/27 11:25:19;;;;;;;4.60;2.20;;;;;;;23.11;56.81;100576.07;1735453;81;21080;-67
2021/05/27 11:28:11;;;;;;;4.90;2.77;;;;;;;22.94;57.56;100571.64;1751132;80;21124;-69
2021/05/27 11:30:44;;;;;;;5.83;2.93;;;;;;;22.67;58.92;100583.14;1740659;80;21647;-69
2021/05/27 11:33:28;;;;;;;7.73;3.00;;;;;;;22.18;61.78;100585.75;1736135;80;21507;-69
2021/05/27 11:35:57;;;;;;;5.53;3.30;;;;;;;21.40;65.29;100593.11;1742544;80;21120;-69
2021/05/27 11:38:37;;;;;;;6.95;3.90;;;;;;;20.36;69.92;100601.00;1739189;80;21120;-69
2021/05/27 11:41:16;;;;;;;5.10;3.30;;;;;;;19.62;72.42;100608.15;1745265;80;21569;-67